Terminal Aerodrome Forecast
Issued by NWS Grand Forks, ND

Home | Current Version | Previous Version | Text Only | Print | Product List | Glossary On
Versions: 1 2 3 4 5 6 7 8 9 10 11 12
000
FTUS43 KFGF 272300
TAFFAR
TAF
KFAR 272325Z 2800/2824 21008KT P6SM FEW250
     FM280200 18008KT P6SM BKN250
     FM281700 20011KT P6SM BKN100=

USA.gov is the U.S. government's official web portal to all federal, state and local government web resources and services.